sensor_id;sensor_type;location;lat;lon;timestamp;P1;durP1;ratioP1;P2;durP2;ratioP2
37311;SDS011;23197;53.912;9.138;2022-08-03T00:01:28;7.07;;;5.97;;
37311;SDS011;23197;53.912;9.138;2022-08-03T00:03:54;8.50;;;6.15;;
37311;SDS011;23197;53.912;9.138;2022-08-03T00:06:19;7.40;;;5.88;;
37311;SDS011;23197;53.912;9.138;2022-08-03T00:08:45;7.85;;;5.40;;
37311;SDS011;23197;53.912;9.138;2022-08-03T00:11:10;6.93;;;5.47;;
37311;SDS011;23197;53.912;9.138;2022-08-03T00:13:36;6.95;;;5.50;;
37311;SDS011;23197;53.912;9.138;2022-08-03T00:16:01;7.25;;;5.28;;
37311;SDS011;23197;53.912;9.138;2022-08-03T00:18:27;7.97;;;5.47;;
37311;SDS011;23197;53.912;9.138;2022-08-03T00:20:52;6.70;;;5.25;;
37311;SDS011;23197;53.912;9.138;2022-08-03T00:23:17;8.38;;;5.47;;
37311;SDS011;23197;53.912;9.138;2022-08-03T00:25:43;7.03;;;5.60;;
37311;SDS011;23197;53.912;9.138;2022-08-03T00:28:08;10.20;;;5.75;;
37311;SDS011;23197;53.912;9.138;2022-08-03T00:30:34;8.25;;;5.97;;
37311;SDS011;23197;53.912;9.138;2022-08-03T00:33:00;7.80;;;6.07;;
37311;SDS011;23197;53.912;9.138;2022-08-03T00:35:27;7.00;;;5.40;;
37311;SDS011;23197;53.912;9.138;2022-08-03T00:37:53;8.98;;;6.20;;
37311;SDS011;23197;53.912;9.138;2022-08-03T00:40:19;7.10;;;5.22;;
37311;SDS011;23197;53.912;9.138;2022-08-03T00:42:49;7.95;;;5.75;;
37311;SDS011;23197;53.912;9.138;2022-08-03T00:45:15;7.88;;;5.90;;
37311;SDS011;23197;53.912;9.138;2022-08-03T00:47:42;8.10;;;5.43;;
37311;SDS011;23197;53.912;9.138;2022-08-03T00:50:07;7.55;;;5.35;;
37311;SDS011;23197;53.912;9.138;2022-08-03T00:52:34;7.68;;;5.22;;
37311;SDS011;23197;53.912;9.138;2022-08-03T00:54:59;7.63;;;5.68;;
37311;SDS011;23197;53.912;9.138;2022-08-03T00:57:26;6.68;;;5.38;;
37311;SDS011;23197;53.912;9.138;2022-08-03T00:59:53;8.48;;;5.50;;
37311;SDS011;23197;53.912;9.138;2022-08-03T01:02:19;8.07;;;5.60;;
37311;SDS011;23197;53.912;9.138;2022-08-03T01:04:44;7.32;;;5.15;;
37311;SDS011;23197;53.912;9.138;2022-08-03T01:07:21;7.28;;;5.35;;
37311;SDS011;23197;53.912;9.138;2022-08-03T01:10:12;7.38;;;5.55;;
37311;SDS011;23197;53.912;9.138;2022-08-03T01:12:47;7.78;;;5.63;;
37311;SDS011;23197;53.912;9.138;2022-08-03T01:18:13;7.35;;;5.30;;
37311;SDS011;23197;53.912;9.138;2022-08-03T01:20:43;7.65;;;6.00;;
37311;SDS011;23197;53.912;9.138;2022-08-03T01:26:05;7.55;;;5.07;;
37311;SDS011;23197;53.912;9.138;2022-08-03T01:31:25;8.75;;;4.53;;
37311;SDS011;23197;53.912;9.138;2022-08-03T01:33:57;7.30;;;5.03;;
37311;SDS011;23197;53.912;9.138;2022-08-03T01:36:31;9.30;;;4.93;;
37311;SDS011;23197;53.912;9.138;2022-08-03T01:41:33;6.47;;;4.60;;
37311;SDS011;23197;53.912;9.138;2022-08-03T01:44:06;7.15;;;5.32;;
37311;SDS011;23197;53.912;9.138;2022-08-03T01:46:34;8.63;;;5.30;;
37311;SDS011;23197;53.912;9.138;2022-08-03T01:49:02;7.55;;;5.00;;
37311;SDS011;23197;53.912;9.138;2022-08-03T01:51:31;10.30;;;5.13;;
37311;SDS011;23197;53.912;9.138;2022-08-03T01:53:58;9.23;;;5.97;;
37311;SDS011;23197;53.912;9.138;2022-08-03T01:56:25;7.55;;;5.72;;
37311;SDS011;23197;53.912;9.138;2022-08-03T01:58:54;6.82;;;5.30;;
37311;SDS011;23197;53.912;9.138;2022-08-03T02:01:22;6.43;;;5.55;;
37311;SDS011;23197;53.912;9.138;2022-08-03T02:03:51;8.20;;;5.53;;
37311;SDS011;23197;53.912;9.138;2022-08-03T02:06:18;7.97;;;5.65;;
37311;SDS011;23197;53.912;9.138;2022-08-03T02:08:45;6.82;;;5.00;;
37311;SDS011;23197;53.912;9.138;2022-08-03T02:11:12;6.45;;;4.78;;
37311;SDS011;23197;53.912;9.138;2022-08-03T02:13:37;7.70;;;5.40;;
37311;SDS011;23197;53.912;9.138;2022-08-03T02:16:04;6.70;;;5.47;;
37311;SDS011;23197;53.912;9.138;2022-08-03T02:18:31;7.00;;;5.30;;
37311;SDS011;23197;53.912;9.138;2022-08-03T02:20:59;7.00;;;5.28;;
37311;SDS011;23197;53.912;9.138;2022-08-03T02:23:26;7.05;;;5.22;;
37311;SDS011;23197;53.912;9.138;2022-08-03T02:25:52;8.10;;;6.15;;
37311;SDS011;23197;53.912;9.138;2022-08-03T02:28:25;7.32;;;5.97;;
37311;SDS011;23197;53.912;9.138;2022-08-03T02:31:04;7.43;;;5.88;;
37311;SDS011;23197;53.912;9.138;2022-08-03T02:33:36;9.43;;;6.28;;
37311;SDS011;23197;53.912;9.138;2022-08-03T02:36:05;7.43;;;5.78;;
37311;SDS011;23197;53.912;9.138;2022-08-03T02:38:33;8.57;;;5.88;;
37311;SDS011;23197;53.912;9.138;2022-08-03T02:41:03;9.90;;;6.75;;
37311;SDS011;23197;53.912;9.138;2022-08-03T02:43:37;7.57;;;6.18;;
37311;SDS011;23197;53.912;9.138;2022-08-03T02:46:04;11.48;;;5.97;;
37311;SDS011;23197;53.912;9.138;2022-08-03T02:48:33;13.32;;;6.43;;
37311;SDS011;23197;53.912;9.138;2022-08-03T02:51:02;7.97;;;5.85;;
37311;SDS011;23197;53.912;9.138;2022-08-03T02:53:28;7.57;;;5.50;;
37311;SDS011;23197;53.912;9.138;2022-08-03T02:55:56;6.28;;;5.07;;
37311;SDS011;23197;53.912;9.138;2022-08-03T02:58:23;7.25;;;5.40;;
37311;SDS011;23197;53.912;9.138;2022-08-03T03:00:50;8.18;;;5.10;;
37311;SDS011;23197;53.912;9.138;2022-08-03T03:03:16;7.32;;;5.38;;
37311;SDS011;23197;53.912;9.138;2022-08-03T03:05:43;7.47;;;4.93;;
37311;SDS011;23197;53.912;9.138;2022-08-03T03:08:13;7.03;;;4.85;;
37311;SDS011;23197;53.912;9.138;2022-08-03T03:10:40;7.50;;;5.60;;
37311;SDS011;23197;53.912;9.138;2022-08-03T03:13:07;6.63;;;5.38;;
37311;SDS011;23197;53.912;9.138;2022-08-03T03:15:33;8.25;;;5.63;;
37311;SDS011;23197;53.912;9.138;2022-08-03T03:18:01;8.57;;;5.88;;
37311;SDS011;23197;53.912;9.138;2022-08-03T03:20:27;9.05;;;5.75;;
37311;SDS011;23197;53.912;9.138;2022-08-03T03:22:54;7.38;;;5.47;;
37311;SDS011;23197;53.912;9.138;2022-08-03T03:25:20;7.00;;;5.35;;
37311;SDS011;23197;53.912;9.138;2022-08-03T03:27:47;7.35;;;5.30;;
37311;SDS011;23197;53.912;9.138;2022-08-03T03:30:14;7.40;;;5.22;;
37311;SDS011;23197;53.912;9.138;2022-08-03T03:32:39;8.27;;;6.10;;
37311;SDS011;23197;53.912;9.138;2022-08-03T03:35:05;7.65;;;5.70;;
37311;SDS011;23197;53.912;9.138;2022-08-03T03:37:32;7.05;;;5.28;;
37311;SDS011;23197;53.912;9.138;2022-08-03T03:39:58;7.85;;;5.68;;
37311;SDS011;23197;53.912;9.138;2022-08-03T03:42:24;7.25;;;5.65;;
37311;SDS011;23197;53.912;9.138;2022-08-03T03:44:50;6.95;;;5.15;;
37311;SDS011;23197;53.912;9.138;2022-08-03T03:47:15;9.48;;;5.82;;
37311;SDS011;23197;53.912;9.138;2022-08-03T03:49:42;9.43;;;5.55;;
37311;SDS011;23197;53.912;9.138;2022-08-03T03:52:08;7.78;;;5.85;;
37311;SDS011;23197;53.912;9.138;2022-08-03T03:54:38;6.72;;;5.40;;
37311;SDS011;23197;53.912;9.138;2022-08-03T03:57:08;8.00;;;5.35;;
37311;SDS011;23197;53.912;9.138;2022-08-03T03:59:40;6.72;;;5.18;;
37311;SDS011;23197;53.912;9.138;2022-08-03T04:02:07;7.47;;;5.40;;
37311;SDS011;23197;53.912;9.138;2022-08-03T04:04:34;9.63;;;5.68;;
37311;SDS011;23197;53.912;9.138;2022-08-03T04:07:19;8.15;;;5.57;;
37311;SDS011;23197;53.912;9.138;2022-08-03T04:10:05;8.52;;;5.20;;
37311;SDS011;23197;53.912;9.138;2022-08-03T04:12:59;7.65;;;5.20;;
37311;SDS011;23197;53.912;9.138;2022-08-03T04:15:27;6.53;;;4.90;;
37311;SDS011;23197;53.912;9.138;2022-08-03T04:17:56;6.93;;;4.95;;
37311;SDS011;23197;53.912;9.138;2022-08-03T04:20:24;8.52;;;5.10;;
37311;SDS011;23197;53.912;9.138;2022-08-03T04:22:52;8.57;;;5.47;;
37311;SDS011;23197;53.912;9.138;2022-08-03T04:25:20;8.23;;;5.25;;
37311;SDS011;23197;53.912;9.138;2022-08-03T04:27:49;6.60;;;4.90;;
37311;SDS011;23197;53.912;9.138;2022-08-03T04:30:17;8.18;;;5.25;;
37311;SDS011;23197;53.912;9.138;2022-08-03T04:32:43;6.75;;;4.50;;
37311;SDS011;23197;53.912;9.138;2022-08-03T04:35:15;6.32;;;4.80;;
37311;SDS011;23197;53.912;9.138;2022-08-03T04:37:43;8.90;;;4.63;;
37311;SDS011;23197;53.912;9.138;2022-08-03T04:40:12;9.77;;;5.03;;
37311;SDS011;23197;53.912;9.138;2022-08-03T04:42:39;6.72;;;4.63;;
37311;SDS011;23197;53.912;9.138;2022-08-03T04:45:07;6.75;;;4.78;;
37311;SDS011;23197;53.912;9.138;2022-08-03T04:47:36;6.82;;;4.82;;
37311;SDS011;23197;53.912;9.138;2022-08-03T04:50:05;9.27;;;4.93;;
37311;SDS011;23197;53.912;9.138;2022-08-03T04:52:32;7.97;;;4.53;;
37311;SDS011;23197;53.912;9.138;2022-08-03T04:54:59;8.10;;;4.50;;
37311;SDS011;23197;53.912;9.138;2022-08-03T04:57:25;6.80;;;4.45;;
37311;SDS011;23197;53.912;9.138;2022-08-03T04:59:51;9.30;;;4.60;;
37311;SDS011;23197;53.912;9.138;2022-08-03T05:02:19;8.45;;;5.00;;
37311;SDS011;23197;53.912;9.138;2022-08-03T05:04:45;8.18;;;5.00;;
37311;SDS011;23197;53.912;9.138;2022-08-03T05:07:11;8.70;;;4.75;;
37311;SDS011;23197;53.912;9.138;2022-08-03T05:09:38;7.10;;;4.72;;
37311;SDS011;23197;53.912;9.138;2022-08-03T05:12:04;9.88;;;5.32;;
37311;SDS011;23197;53.912;9.138;2022-08-03T05:14:30;7.00;;;4.88;;
37311;SDS011;23197;53.912;9.138;2022-08-03T05:16:57;6.18;;;4.22;;
37311;SDS011;23197;53.912;9.138;2022-08-03T05:19:22;5.78;;;4.18;;
37311;SDS011;23197;53.912;9.138;2022-08-03T05:21:48;6.20;;;4.00;;
37311;SDS011;23197;53.912;9.138;2022-08-03T05:24:13;7.07;;;4.20;;
37311;SDS011;23197;53.912;9.138;2022-08-03T05:26:38;5.60;;;3.90;;
37311;SDS011;23197;53.912;9.138;2022-08-03T05:29:04;6.85;;;4.28;;
37311;SDS011;23197;53.912;9.138;2022-08-03T05:31:29;6.45;;;4.38;;
37311;SDS011;23197;53.912;9.138;2022-08-03T05:33:55;6.15;;;4.25;;
37311;SDS011;23197;53.912;9.138;2022-08-03T05:36:21;5.00;;;3.85;;
37311;SDS011;23197;53.912;9.138;2022-08-03T05:38:47;8.32;;;4.10;;
37311;SDS011;23197;53.912;9.138;2022-08-03T05:41:12;7.65;;;3.75;;
37311;SDS011;23197;53.912;9.138;2022-08-03T05:43:38;7.70;;;4.00;;
37311;SDS011;23197;53.912;9.138;2022-08-03T05:46:03;6.43;;;3.92;;
37311;SDS011;23197;53.912;9.138;2022-08-03T05:48:29;8.10;;;4.55;;
37311;SDS011;23197;53.912;9.138;2022-08-03T05:50:54;7.38;;;4.60;;
37311;SDS011;23197;53.912;9.138;2022-08-03T05:53:19;6.88;;;4.43;;
37311;SDS011;23197;53.912;9.138;2022-08-03T05:55:45;8.35;;;4.55;;
37311;SDS011;23197;53.912;9.138;2022-08-03T05:58:10;5.22;;;4.05;;
37311;SDS011;23197;53.912;9.138;2022-08-03T06:00:36;6.38;;;3.90;;
37311;SDS011;23197;53.912;9.138;2022-08-03T06:03:02;5.13;;;3.63;;
37311;SDS011;23197;53.912;9.138;2022-08-03T06:05:27;6.70;;;3.92;;
37311;SDS011;23197;53.912;9.138;2022-08-03T06:07:53;8.23;;;3.65;;
37311;SDS011;23197;53.912;9.138;2022-08-03T06:10:19;6.85;;;3.40;;
37311;SDS011;23197;53.912;9.138;2022-08-03T06:12:44;4.57;;;3.58;;
37311;SDS011;23197;53.912;9.138;2022-08-03T06:15:13;5.32;;;3.60;;
37311;SDS011;23197;53.912;9.138;2022-08-03T06:17:46;4.30;;;3.20;;
37311;SDS011;23197;53.912;9.138;2022-08-03T06:20:14;6.63;;;3.85;;
37311;SDS011;23197;53.912;9.138;2022-08-03T06:22:42;7.05;;;3.85;;
37311;SDS011;23197;53.912;9.138;2022-08-03T06:25:08;5.68;;;3.78;;
37311;SDS011;23197;53.912;9.138;2022-08-03T06:27:33;6.70;;;3.40;;
37311;SDS011;23197;53.912;9.138;2022-08-03T06:30:00;6.03;;;3.40;;
37311;SDS011;23197;53.912;9.138;2022-08-03T06:32:26;6.65;;;3.40;;
37311;SDS011;23197;53.912;9.138;2022-08-03T06:34:52;4.13;;;3.33;;
37311;SDS011;23197;53.912;9.138;2022-08-03T06:37:17;5.45;;;3.70;;
37311;SDS011;23197;53.912;9.138;2022-08-03T06:39:43;6.03;;;3.97;;
37311;SDS011;23197;53.912;9.138;2022-08-03T06:42:08;7.30;;;3.30;;
37311;SDS011;23197;53.912;9.138;2022-08-03T06:44:34;4.88;;;2.90;;
37311;SDS011;23197;53.912;9.138;2022-08-03T06:47:01;4.90;;;3.47;;
37311;SDS011;23197;53.912;9.138;2022-08-03T06:49:27;4.80;;;2.78;;
37311;SDS011;23197;53.912;9.138;2022-08-03T06:51:52;5.50;;;2.95;;
37311;SDS011;23197;53.912;9.138;2022-08-03T06:54:18;5.15;;;2.60;;
37311;SDS011;23197;53.912;9.138;2022-08-03T06:56:46;5.05;;;2.42;;
37311;SDS011;23197;53.912;9.138;2022-08-03T06:59:12;5.35;;;2.53;;
37311;SDS011;23197;53.912;9.138;2022-08-03T07:01:37;5.40;;;2.65;;
37311;SDS011;23197;53.912;9.138;2022-08-03T07:04:03;4.00;;;2.42;;
37311;SDS011;23197;53.912;9.138;2022-08-03T07:06:28;4.50;;;2.15;;
37311;SDS011;23197;53.912;9.138;2022-08-03T07:08:54;7.22;;;2.40;;
37311;SDS011;23197;53.912;9.138;2022-08-03T07:11:20;3.95;;;2.50;;
37311;SDS011;23197;53.912;9.138;2022-08-03T07:13:46;6.10;;;2.40;;
37311;SDS011;23197;53.912;9.138;2022-08-03T07:16:11;4.53;;;2.38;;
37311;SDS011;23197;53.912;9.138;2022-08-03T07:18:37;6.22;;;2.35;;
37311;SDS011;23197;53.912;9.138;2022-08-03T07:21:03;7.97;;;2.25;;
37311;SDS011;23197;53.912;9.138;2022-08-03T07:23:28;5.10;;;2.30;;
37311;SDS011;23197;53.912;9.138;2022-08-03T07:25:54;4.55;;;2.00;;
37311;SDS011;23197;53.912;9.138;2022-08-03T07:28:19;5.75;;;2.40;;
37311;SDS011;23197;53.912;9.138;2022-08-03T07:30:45;5.50;;;2.15;;
37311;SDS011;23197;53.912;9.138;2022-08-03T07:33:11;5.47;;;2.17;;
37311;SDS011;23197;53.912;9.138;2022-08-03T07:35:37;4.05;;;2.28;;
37311;SDS011;23197;53.912;9.138;2022-08-03T07:38:03;5.57;;;2.10;;
37311;SDS011;23197;53.912;9.138;2022-08-03T07:40:28;4.85;;;1.65;;
37311;SDS011;23197;53.912;9.138;2022-08-03T07:42:54;5.68;;;2.28;;
37311;SDS011;23197;53.912;9.138;2022-08-03T07:45:19;6.00;;;2.10;;
37311;SDS011;23197;53.912;9.138;2022-08-03T07:47:47;5.38;;;1.98;;
37311;SDS011;23197;53.912;9.138;2022-08-03T07:50:12;5.60;;;1.98;;
37311;SDS011;23197;53.912;9.138;2022-08-03T07:52:38;5.05;;;1.80;;
37311;SDS011;23197;53.912;9.138;2022-08-03T07:55:12;5.57;;;1.80;;
37311;SDS011;23197;53.912;9.138;2022-08-03T07:57:38;4.22;;;1.80;;
37311;SDS011;23197;53.912;9.138;2022-08-03T08:00:04;5.68;;;1.92;;
37311;SDS011;23197;53.912;9.138;2022-08-03T08:02:39;4.57;;;1.60;;
37311;SDS011;23197;53.912;9.138;2022-08-03T08:05:05;8.38;;;1.90;;
37311;SDS011;23197;53.912;9.138;2022-08-03T08:07:31;4.53;;;2.00;;
37311;SDS011;23197;53.912;9.138;2022-08-03T08:09:56;6.65;;;1.90;;
37311;SDS011;23197;53.912;9.138;2022-08-03T08:12:22;7.30;;;2.13;;
37311;SDS011;23197;53.912;9.138;2022-08-03T08:14:47;5.05;;;2.05;;
37311;SDS011;23197;53.912;9.138;2022-08-03T08:17:13;6.88;;;2.08;;
37311;SDS011;23197;53.912;9.138;2022-08-03T08:19:39;4.68;;;1.92;;
37311;SDS011;23197;53.912;9.138;2022-08-03T08:22:04;4.18;;;1.80;;
37311;SDS011;23197;53.912;9.138;2022-08-03T08:24:30;5.18;;;2.00;;
37311;SDS011;23197;53.912;9.138;2022-08-03T08:26:58;5.25;;;2.17;;
37311;SDS011;23197;53.912;9.138;2022-08-03T08:29:24;4.72;;;2.00;;
37311;SDS011;23197;53.912;9.138;2022-08-03T08:31:49;4.45;;;2.17;;
37311;SDS011;23197;53.912;9.138;2022-08-03T08:34:15;5.45;;;1.98;;
37311;SDS011;23197;53.912;9.138;2022-08-03T08:36:41;7.60;;;2.28;;
37311;SDS011;23197;53.912;9.138;2022-08-03T08:39:06;4.35;;;1.92;;
37311;SDS011;23197;53.912;9.138;2022-08-03T08:41:32;5.93;;;2.00;;
37311;SDS011;23197;53.912;9.138;2022-08-03T08:44:01;5.32;;;2.20;;
37311;SDS011;23197;53.912;9.138;2022-08-03T08:46:28;5.32;;;2.13;;
37311;SDS011;23197;53.912;9.138;2022-08-03T08:48:57;4.65;;;2.08;;
37311;SDS011;23197;53.912;9.138;2022-08-03T08:51:26;5.68;;;2.30;;
37311;SDS011;23197;53.912;9.138;2022-08-03T08:53:53;4.25;;;1.98;;
37311;SDS011;23197;53.912;9.138;2022-08-03T08:56:22;9.63;;;2.28;;
37311;SDS011;23197;53.912;9.138;2022-08-03T08:58:59;5.60;;;2.10;;
37311;SDS011;23197;53.912;9.138;2022-08-03T09:01:25;4.22;;;1.85;;
37311;SDS011;23197;53.912;9.138;2022-08-03T09:03:52;5.05;;;2.35;;
37311;SDS011;23197;53.912;9.138;2022-08-03T09:06:19;6.53;;;2.10;;
37311;SDS011;23197;53.912;9.138;2022-08-03T09:08:45;5.80;;;1.92;;
37311;SDS011;23197;53.912;9.138;2022-08-03T09:11:10;6.45;;;2.03;;
37311;SDS011;23197;53.912;9.138;2022-08-03T09:13:36;7.15;;;2.40;;
37311;SDS011;23197;53.912;9.138;2022-08-03T09:16:12;4.68;;;1.90;;
37311;SDS011;23197;53.912;9.138;2022-08-03T09:18:50;6.60;;;2.13;;
37311;SDS011;23197;53.912;9.138;2022-08-03T09:21:21;6.88;;;2.15;;
37311;SDS011;23197;53.912;9.138;2022-08-03T09:23:49;4.65;;;1.90;;
37311;SDS011;23197;53.912;9.138;2022-08-03T09:26:19;7.85;;;2.08;;
37311;SDS011;23197;53.912;9.138;2022-08-03T09:28:45;6.00;;;1.90;;
37311;SDS011;23197;53.912;9.138;2022-08-03T09:31:11;5.65;;;1.70;;
37311;SDS011;23197;53.912;9.138;2022-08-03T09:33:54;5.55;;;2.15;;
37311;SDS011;23197;53.912;9.138;2022-08-03T09:36:37;5.18;;;1.83;;
37311;SDS011;23197;53.912;9.138;2022-08-03T09:39:05;7.10;;;1.73;;
37311;SDS011;23197;53.912;9.138;2022-08-03T09:41:35;7.00;;;2.25;;
37311;SDS011;23197;53.912;9.138;2022-08-03T09:44:01;5.80;;;2.05;;
37311;SDS011;23197;53.912;9.138;2022-08-03T09:46:27;6.07;;;2.15;;
37311;SDS011;23197;53.912;9.138;2022-08-03T09:49:08;6.40;;;2.20;;
37311;SDS011;23197;53.912;9.138;2022-08-03T09:51:35;7.95;;;1.88;;
37311;SDS011;23197;53.912;9.138;2022-08-03T09:54:04;7.50;;;2.33;;
37311;SDS011;23197;53.912;9.138;2022-08-03T09:59:41;9.30;;;2.28;;
37311;SDS011;23197;53.912;9.138;2022-08-03T10:02:37;8.68;;;2.28;;
37311;SDS011;23197;53.912;9.138;2022-08-03T10:05:22;10.68;;;2.03;;
37311;SDS011;23197;53.912;9.138;2022-08-03T10:09:40;7.95;;;1.90;;
37311;SDS011;23197;53.912;9.138;2022-08-03T10:11:42;7.40;;;2.50;;
37311;SDS011;23197;53.912;9.138;2022-08-03T10:14:11;7.55;;;2.33;;
37311;SDS011;23197;53.912;9.138;2022-08-03T10:17:04;8.35;;;2.03;;
37311;SDS011;23197;53.912;9.138;2022-08-03T10:19:38;11.60;;;2.40;;
37311;SDS011;23197;53.912;9.138;2022-08-03T10:22:23;11.65;;;2.40;;
37311;SDS011;23197;53.912;9.138;2022-08-03T10:24:52;9.20;;;2.58;;
37311;SDS011;23197;53.912;9.138;2022-08-03T10:27:23;9.70;;;2.47;;
37311;SDS011;23197;53.912;9.138;2022-08-03T10:30:01;7.70;;;2.17;;
37311;SDS011;23197;53.912;9.138;2022-08-03T10:32:30;11.00;;;2.80;;
37311;SDS011;23197;53.912;9.138;2022-08-03T10:35:01;10.75;;;2.75;;
37311;SDS011;23197;53.912;9.138;2022-08-03T10:37:29;14.52;;;3.30;;
37311;SDS011;23197;53.912;9.138;2022-08-03T10:39:57;8.00;;;2.40;;
37311;SDS011;23197;53.912;9.138;2022-08-03T10:42:25;10.30;;;2.97;;
37311;SDS011;23197;53.912;9.138;2022-08-03T10:44:55;12.52;;;2.85;;
37311;SDS011;23197;53.912;9.138;2022-08-03T10:47:29;9.02;;;2.83;;
37311;SDS011;23197;53.912;9.138;2022-08-03T10:49:55;11.25;;;2.60;;
37311;SDS011;23197;53.912;9.138;2022-08-03T10:52:21;11.80;;;3.00;;
37311;SDS011;23197;53.912;9.138;2022-08-03T10:54:46;6.47;;;2.28;;
37311;SDS011;23197;53.912;9.138;2022-08-03T10:57:43;9.88;;;2.92;;
37311;SDS011;23197;53.912;9.138;2022-08-03T11:00:10;9.75;;;2.70;;
37311;SDS011;23197;53.912;9.138;2022-08-03T11:05:28;12.15;;;2.70;;
37311;SDS011;23197;53.912;9.138;2022-08-03T11:10:41;11.40;;;2.95;;
37311;SDS011;23197;53.912;9.138;2022-08-03T11:13:07;12.20;;;2.88;;
37311;SDS011;23197;53.912;9.138;2022-08-03T11:15:35;9.27;;;2.90;;
37311;SDS011;23197;53.912;9.138;2022-08-03T11:18:06;12.23;;;2.70;;
37311;SDS011;23197;53.912;9.138;2022-08-03T11:20:44;7.57;;;2.45;;
37311;SDS011;23197;53.912;9.138;2022-08-03T11:26:13;14.15;;;2.83;;
37311;SDS011;23197;53.912;9.138;2022-08-03T11:28:44;8.80;;;3.10;;
37311;SDS011;23197;53.912;9.138;2022-08-03T11:31:42;9.82;;;2.22;;
37311;SDS011;23197;53.912;9.138;2022-08-03T11:37:16;9.50;;;2.53;;
37311;SDS011;23197;53.912;9.138;2022-08-03T11:39:36;8.63;;;2.70;;
37311;SDS011;23197;53.912;9.138;2022-08-03T11:44:47;12.75;;;2.78;;
37311;SDS011;23197;53.912;9.138;2022-08-03T11:47:14;10.10;;;2.60;;
37311;SDS011;23197;53.912;9.138;2022-08-03T11:49:43;7.68;;;2.72;;
37311;SDS011;23197;53.912;9.138;2022-08-03T11:52:11;11.15;;;2.90;;
37311;SDS011;23197;53.912;9.138;2022-08-03T11:54:37;10.80;;;2.58;;
37311;SDS011;23197;53.912;9.138;2022-08-03T11:57:03;8.90;;;2.72;;
37311;SDS011;23197;53.912;9.138;2022-08-03T11:59:32;11.77;;;2.22;;
37311;SDS011;23197;53.912;9.138;2022-08-03T12:02:08;7.13;;;2.50;;
37311;SDS011;23197;53.912;9.138;2022-08-03T12:07:22;7.13;;;2.00;;
37311;SDS011;23197;53.912;9.138;2022-08-03T12:10:08;6.50;;;2.25;;
37311;SDS011;23197;53.912;9.138;2022-08-03T12:12:38;8.90;;;2.30;;
37311;SDS011;23197;53.912;9.138;2022-08-03T12:15:05;11.07;;;2.58;;
37311;SDS011;23197;53.912;9.138;2022-08-03T12:17:35;5.45;;;1.90;;
37311;SDS011;23197;53.912;9.138;2022-08-03T12:20:02;7.85;;;2.30;;
37311;SDS011;23197;53.912;9.138;2022-08-03T12:22:36;8.60;;;2.13;;
37311;SDS011;23197;53.912;9.138;2022-08-03T12:25:03;8.80;;;2.17;;
37311;SDS011;23197;53.912;9.138;2022-08-03T12:27:32;7.80;;;2.38;;
37311;SDS011;23197;53.912;9.138;2022-08-03T12:29:59;8.02;;;2.03;;
37311;SDS011;23197;53.912;9.138;2022-08-03T12:32:26;7.60;;;1.80;;
37311;SDS011;23197;53.912;9.138;2022-08-03T12:34:53;9.43;;;2.05;;
37311;SDS011;23197;53.912;9.138;2022-08-03T12:37:22;6.00;;;2.05;;
37311;SDS011;23197;53.912;9.138;2022-08-03T12:39:51;8.15;;;2.03;;
37311;SDS011;23197;53.912;9.138;2022-08-03T12:42:18;6.60;;;2.10;;
37311;SDS011;23197;53.912;9.138;2022-08-03T12:44:44;6.63;;;2.08;;
37311;SDS011;23197;53.912;9.138;2022-08-03T12:47:10;5.47;;;1.85;;
37311;SDS011;23197;53.912;9.138;2022-08-03T12:49:49;8.57;;;1.98;;
37311;SDS011;23197;53.912;9.138;2022-08-03T12:52:16;6.60;;;1.85;;
37311;SDS011;23197;53.912;9.138;2022-08-03T12:54:42;6.32;;;1.85;;
37311;SDS011;23197;53.912;9.138;2022-08-03T12:57:19;9.85;;;2.40;;
37311;SDS011;23197;53.912;9.138;2022-08-03T12:59:45;12.02;;;2.00;;
37311;SDS011;23197;53.912;9.138;2022-08-03T13:02:19;6.80;;;1.90;;
37311;SDS011;23197;53.912;9.138;2022-08-03T13:04:47;9.30;;;1.95;;
37311;SDS011;23197;53.912;9.138;2022-08-03T13:07:15;7.80;;;1.88;;
37311;SDS011;23197;53.912;9.138;2022-08-03T13:12:21;9.65;;;2.08;;
37311;SDS011;23197;53.912;9.138;2022-08-03T13:14:49;8.10;;;2.17;;
37311;SDS011;23197;53.912;9.138;2022-08-03T13:17:16;8.25;;;2.25;;
37311;SDS011;23197;53.912;9.138;2022-08-03T13:19:42;6.30;;;2.00;;
37311;SDS011;23197;53.912;9.138;2022-08-03T13:22:22;7.75;;;1.60;;
37311;SDS011;23197;53.912;9.138;2022-08-03T13:24:50;6.93;;;1.90;;
37311;SDS011;23197;53.912;9.138;2022-08-03T13:27:17;9.95;;;2.08;;
37311;SDS011;23197;53.912;9.138;2022-08-03T13:29:43;7.15;;;1.73;;
37311;SDS011;23197;53.912;9.138;2022-08-03T13:32:09;6.80;;;1.95;;
37311;SDS011;23197;53.912;9.138;2022-08-03T13:34:35;7.28;;;2.05;;
37311;SDS011;23197;53.912;9.138;2022-08-03T13:37:01;9.25;;;1.90;;
37311;SDS011;23197;53.912;9.138;2022-08-03T13:39:27;7.13;;;2.17;;
37311;SDS011;23197;53.912;9.138;2022-08-03T13:41:52;6.63;;;1.90;;
37311;SDS011;23197;53.912;9.138;2022-08-03T13:44:18;8.45;;;1.90;;
37311;SDS011;23197;53.912;9.138;2022-08-03T13:46:47;6.95;;;1.60;;
37311;SDS011;23197;53.912;9.138;2022-08-03T13:49:13;7.38;;;1.77;;
37311;SDS011;23197;53.912;9.138;2022-08-03T13:51:39;6.95;;;2.05;;
37311;SDS011;23197;53.912;9.138;2022-08-03T13:54:05;8.52;;;2.30;;
37311;SDS011;23197;53.912;9.138;2022-08-03T13:56:30;7.25;;;1.75;;
37311;SDS011;23197;53.912;9.138;2022-08-03T13:58:56;7.50;;;1.70;;
37311;SDS011;23197;53.912;9.138;2022-08-03T14:01:22;5.57;;;1.60;;
37311;SDS011;23197;53.912;9.138;2022-08-03T14:03:49;8.02;;;2.03;;
37311;SDS011;23197;53.912;9.138;2022-08-03T14:06:20;6.85;;;2.00;;
37311;SDS011;23197;53.912;9.138;2022-08-03T14:08:47;6.13;;;1.90;;
37311;SDS011;23197;53.912;9.138;2022-08-03T14:11:12;8.30;;;1.88;;
37311;SDS011;23197;53.912;9.138;2022-08-03T14:13:39;5.90;;;1.65;;
37311;SDS011;23197;53.912;9.138;2022-08-03T14:16:04;5.97;;;1.90;;
37311;SDS011;23197;53.912;9.138;2022-08-03T14:18:30;7.55;;;1.80;;
37311;SDS011;23197;53.912;9.138;2022-08-03T14:20:56;6.95;;;1.75;;
37311;SDS011;23197;53.912;9.138;2022-08-03T14:23:23;6.55;;;1.88;;
37311;SDS011;23197;53.912;9.138;2022-08-03T14:25:48;7.43;;;1.98;;
37311;SDS011;23197;53.912;9.138;2022-08-03T14:28:14;8.65;;;1.70;;
37311;SDS011;23197;53.912;9.138;2022-08-03T14:30:40;7.78;;;1.85;;
37311;SDS011;23197;53.912;9.138;2022-08-03T14:33:06;6.70;;;1.90;;
37311;SDS011;23197;53.912;9.138;2022-08-03T14:35:31;5.88;;;1.80;;
37311;SDS011;23197;53.912;9.138;2022-08-03T14:37:57;7.45;;;2.10;;
37311;SDS011;23197;53.912;9.138;2022-08-03T14:40:22;7.78;;;1.90;;
37311;SDS011;23197;53.912;9.138;2022-08-03T14:42:48;9.15;;;1.92;;
37311;SDS011;23197;53.912;9.138;2022-08-03T14:45:13;6.00;;;2.15;;
37311;SDS011;23197;53.912;9.138;2022-08-03T14:47:39;5.32;;;1.80;;
37311;SDS011;23197;53.912;9.138;2022-08-03T14:50:05;6.18;;;1.98;;
37311;SDS011;23197;53.912;9.138;2022-08-03T14:52:31;7.15;;;2.03;;
37311;SDS011;23197;53.912;9.138;2022-08-03T14:54:57;9.38;;;1.90;;
37311;SDS011;23197;53.912;9.138;2022-08-03T14:57:25;9.68;;;1.90;;
37311;SDS011;23197;53.912;9.138;2022-08-03T14:59:51;6.50;;;2.00;;
37311;SDS011;23197;53.912;9.138;2022-08-03T15:02:16;12.30;;;2.33;;
37311;SDS011;23197;53.912;9.138;2022-08-03T15:04:42;6.65;;;1.80;;
37311;SDS011;23197;53.912;9.138;2022-08-03T15:07:08;6.43;;;1.90;;
37311;SDS011;23197;53.912;9.138;2022-08-03T15:09:33;7.68;;;1.95;;
37311;SDS011;23197;53.912;9.138;2022-08-03T15:11:59;5.28;;;1.92;;
37311;SDS011;23197;53.912;9.138;2022-08-03T15:14:25;5.75;;;1.98;;
37311;SDS011;23197;53.912;9.138;2022-08-03T15:16:50;5.68;;;1.63;;
37311;SDS011;23197;53.912;9.138;2022-08-03T15:19:16;6.53;;;2.20;;
37311;SDS011;23197;53.912;9.138;2022-08-03T15:21:41;6.90;;;2.00;;
37311;SDS011;23197;53.912;9.138;2022-08-03T15:24:07;8.32;;;2.10;;
37311;SDS011;23197;53.912;9.138;2022-08-03T15:26:33;11.63;;;2.00;;